Time;durP1;ratioP1;P1;durP2;ratioP2;P2;SDS_P1;SDS_P2;PMS_P1;PMS_P2;Temp;Humidity;BMP_temperature;BMP_pressure;BME280_temperature;BME280_humidity;BME280_pressure;Samples;Min_cycle;Max_cycle;Signal;HPM_P1;HPM_P2
2023/05/13 00:00:16;;;;;;;4.88;2.35;;;;;;;10.46;73.42;95437.22;5040782;28;20288;-63
2023/05/13 00:02:43;;;;;;;4.80;2.45;;;;;;;10.36;72.80;95445.97;5041700;28;20601;-65
2023/05/13 00:05:10;;;;;;;3.63;2.17;;;;;;;10.53;73.96;95444.63;5041348;28;20297;-63
2023/05/13 00:07:36;;;;;;;2.90;2.35;;;;;;;10.55;72.28;95447.13;5040315;28;20217;-62
2023/05/13 00:10:03;;;;;;;2.33;2.13;;;;;;;10.56;71.24;95456.44;5040620;28;20326;-63
2023/05/13 00:12:31;;;;;;;3.30;2.20;;;;;;;10.56;70.80;95464.06;5040608;28;20294;-61
2023/05/13 00:14:57;;;;;;;2.17;1.88;;;;;;;10.61;70.49;95467.31;5042372;28;21062;-63
2023/05/13 00:17:25;;;;;;;3.00;2.70;;;;;;;10.57;69.63;95465.72;5044541;28;20293;-62
2023/05/13 00:19:52;;;;;;;2.22;2.03;;;;;;;10.57;69.13;95460.63;5045380;28;20293;-65
2023/05/13 00:22:19;;;;;;;4.15;2.10;;;;;;;10.62;69.07;95458.81;5041445;28;20206;-63
2023/05/13 00:24:45;;;;;;;2.40;2.30;;;;;;;10.50;69.27;95454.88;5040726;28;20748;-65
2023/05/13 00:27:12;;;;;;;4.30;1.90;;;;;;;10.46;68.45;95460.06;5043735;28;20210;-62
2023/05/13 00:29:39;;;;;;;2.53;2.13;;;;;;;10.45;68.23;95466.03;5043486;28;20207;-64
2023/05/13 00:32:06;;;;;;;3.00;1.98;;;;;;;10.47;67.89;95475.28;5042773;28;20301;-63
2023/05/13 00:34:34;;;;;;;1.95;1.73;;;;;;;10.52;67.68;95470.09;5042706;28;20363;-65
2023/05/13 00:37:01;;;;;;;9.13;2.10;;;;;;;10.66;67.72;95475.63;5041511;28;20301;-65
2023/05/13 00:39:27;;;;;;;3.60;2.75;;;;;;;10.54;66.82;95460.72;5042033;28;20296;-64
2023/05/13 00:41:54;;;;;;;1.75;1.50;;;;;;;10.55;66.86;95452.22;5042018;28;20294;-65
2023/05/13 00:44:21;;;;;;;3.78;2.65;;;;;;;10.64;66.88;95451.94;5039746;28;20407;-63
2023/05/13 00:46:49;;;;;;;2.22;2.13;;;;;;;10.69;67.01;95459.44;5043392;28;20289;-65
2023/05/13 00:49:16;;;;;;;4.85;1.88;;;;;;;10.68;65.70;95452.69;5042737;28;20556;-62
2023/05/13 00:51:44;;;;;;;2.28;2.08;;;;;;;10.67;65.80;95451.03;5043619;28;20261;-64
2023/05/13 00:54:10;;;;;;;3.85;1.80;;;;;;;10.64;65.89;95449.41;5041640;28;20286;-64
2023/05/13 00:56:37;;;;;;;2.60;1.73;;;;;;;10.67;65.08;95445.94;5042934;28;20275;-63
2023/05/13 00:59:04;;;;;;;2.30;1.75;;;;;;;10.57;64.55;95453.00;5039224;28;20293;-63
2023/05/13 01:01:38;;;;;;;4.28;1.73;;;;;;;10.70;65.45;95444.16;5043200;28;20795;-63
2023/05/13 01:04:14;;;;;;;2.47;2.28;;;;;;;10.61;65.02;95436.81;5042854;28;20347;-63
2023/05/13 01:06:53;;;;;;;3.95;2.05;;;;;;;10.68;64.76;95447.63;5044100;28;20205;-65
2023/05/13 01:09:32;;;;;;;1.88;1.77;;;;;;;10.66;64.07;95447.66;5043417;28;20834;-63
2023/05/13 01:12:07;;;;;;;1.75;1.65;;;;;;;10.67;64.94;95451.03;5040153;28;20416;-63
2023/05/13 01:14:40;;;;;;;6.55;1.70;;;;;;;10.73;65.34;95461.03;5043375;28;20198;-64
2023/05/13 01:17:14;;;;;;;1.95;1.85;;;;;;;10.67;65.23;95459.50;5042630;28;20648;-64
2023/05/13 01:19:44;;;;;;;2.72;2.25;;;;;;;10.70;66.28;95467.03;5041926;28;20275;-65
2023/05/13 01:22:13;;;;;;;2.38;2.20;;;;;;;10.65;69.38;95473.94;5038934;28;20632;-63
2023/05/13 01:24:39;;;;;;;2.05;1.95;;;;;;;10.65;70.56;95483.28;5041223;28;20230;-64
2023/05/13 01:27:07;;;;;;;2.55;2.45;;;;;;;10.69;72.23;95484.88;5041401;28;20299;-63
2023/05/13 01:29:34;;;;;;;3.17;2.72;;;;;;;10.56;74.91;95480.13;5041614;28;20302;-64
2023/05/13 01:32:03;;;;;;;3.45;3.25;;;;;;;10.56;77.71;95492.84;5042888;28;20293;-63
2023/05/13 01:34:30;;;;;;;6.53;4.10;;;;;;;10.43;79.66;95486.41;5043150;28;20675;-63
2023/05/13 01:36:58;;;;;;;4.85;4.40;;;;;;;10.34;81.54;95493.44;5042639;28;20299;-63
2023/05/13 01:39:28;;;;;;;7.60;5.03;;;;;;;10.25;82.63;95498.75;5040426;28;20320;-64
2023/05/13 01:41:55;;;;;;;6.15;4.47;;;;;;;10.13;83.60;95490.56;5042031;28;20202;-64
2023/05/13 01:44:22;;;;;;;5.13;4.63;;;;;;;10.16;83.01;95469.28;5042023;28;20245;-63
2023/05/13 01:46:49;;;;;;;5.32;4.93;;;;;;;10.34;82.37;95488.38;5043004;28;20275;-63
2023/05/13 01:49:16;;;;;;;5.82;5.32;;;;;;;10.42;82.21;95483.91;5042042;28;20234;-64
2023/05/13 01:51:42;;;;;;;5.45;4.95;;;;;;;10.65;81.31;95493.44;5039226;28;20618;-68
2023/05/13 01:54:09;;;;;;;6.18;5.30;;;;;;;10.54;80.81;95491.22;5042197;28;20202;-66
2023/05/13 01:56:37;;;;;;;5.97;5.20;;;;;;;10.48;81.18;95497.28;5041664;28;20731;-64
2023/05/13 01:59:04;;;;;;;5.72;5.22;;;;;;;10.61;80.88;95489.34;5040711;28;20630;-63
2023/05/13 02:01:30;;;;;;;4.90;4.57;;;;;;;10.72;80.47;95480.53;5041349;28;20225;-64
2023/05/13 02:03:58;;;;;;;9.45;5.05;;;;;;;10.83;80.20;95478.56;5042225;28;20408;-64
2023/05/13 02:06:25;;;;;;;9.13;4.85;;;;;;;10.91;79.69;95489.31;5041422;28;20213;-62
2023/05/13 02:08:51;;;;;;;4.95;4.55;;;;;;;10.96;79.09;95493.44;5039951;28;20879;-64
2023/05/13 02:11:18;;;;;;;4.60;4.30;;;;;;;11.04;78.83;95486.44;5040698;28;20234;-64
2023/05/13 02:13:47;;;;;;;4.60;4.20;;;;;;;11.00;78.80;95489.94;5040437;28;20251;-65
2023/05/13 02:16:16;;;;;;;6.32;4.72;;;;;;;11.06;78.78;95475.34;5039766;28;20258;-64
2023/05/13 02:18:42;;;;;;;6.32;5.03;;;;;;;11.07;79.01;95481.28;5040029;28;20391;-64
2023/05/13 02:21:09;;;;;;;5.15;4.72;;;;;;;11.04;79.05;95489.00;5040925;28;20293;-64
2023/05/13 02:23:36;;;;;;;5.20;4.78;;;;;;;11.13;78.17;95487.03;5039518;28;20207;-64
2023/05/13 02:26:03;;;;;;;5.38;4.97;;;;;;;11.13;77.95;95492.13;5041253;28;20230;-64
2023/05/13 02:28:29;;;;;;;5.47;5.07;;;;;;;11.13;77.98;95491.28;5040820;28;20298;-65
2023/05/13 02:30:57;;;;;;;5.25;4.85;;;;;;;11.11;78.35;95487.94;5040704;28;20501;-66
2023/05/13 02:33:24;;;;;;;5.22;4.82;;;;;;;11.18;78.88;95502.13;5041503;28;20305;-64
2023/05/13 02:35:51;;;;;;;4.97;4.57;;;;;;;11.21;79.07;95496.94;5040194;28;20301;-64
2023/05/13 02:38:17;;;;;;;8.75;5.68;;;;;;;11.16;79.34;95493.69;5041744;28;20391;-63
2023/05/13 02:40:44;;;;;;;5.78;5.28;;;;;;;11.23;79.85;95490.13;5041462;28;20297;-64
2023/05/13 02:43:11;;;;;;;5.65;3.90;;;;;;;11.27;79.92;95498.50;5041658;28;20297;-63
2023/05/13 02:45:38;;;;;;;5.32;4.93;;;;;;;11.20;79.76;95502.91;5040929;28;20222;-63
2023/05/13 02:48:06;;;;;;;6.45;5.85;;;;;;;11.27;79.78;95508.66;5040667;28;20294;-64
2023/05/13 02:50:33;;;;;;;6.63;5.50;;;;;;;11.21;80.03;95509.66;5039941;28;20329;-64
2023/05/13 02:53:00;;;;;;;7.18;6.28;;;;;;;11.26;80.37;95507.84;5040765;28;20325;-64
2023/05/13 02:55:26;;;;;;;5.57;5.18;;;;;;;11.25;80.26;95513.81;5040314;28;20317;-64
2023/05/13 02:57:55;;;;;;;6.35;5.75;;;;;;;11.19;80.15;95526.69;5042087;28;20293;-65
2023/05/13 03:00:22;;;;;;;6.18;4.57;;;;;;;11.13;80.16;95519.25;5041229;28;20210;-65
2023/05/13 03:02:48;;;;;;;5.38;4.97;;;;;;;11.15;79.96;95522.56;5041785;28;20210;-65
2023/05/13 03:05:17;;;;;;;5.68;5.20;;;;;;;11.18;79.98;95525.84;5041624;28;20249;-61
2023/05/13 03:07:43;;;;;;;5.50;5.07;;;;;;;11.25;79.75;95524.81;5042753;28;20289;-61
2023/05/13 03:10:10;;;;;;;7.93;5.85;;;;;;;11.20;79.75;95523.28;5041495;28;20230;-62
2023/05/13 03:12:37;;;;;;;5.55;5.10;;;;;;;11.27;79.92;95534.94;5041433;28;20569;-63
2023/05/13 03:15:04;;;;;;;5.85;5.38;;;;;;;11.26;79.69;95535.81;5041564;28;20503;-63
2023/05/13 03:17:32;;;;;;;6.30;5.90;;;;;;;11.30;80.46;95539.13;5041495;28;20293;-63
2023/05/13 03:19:59;;;;;;;8.52;5.30;;;;;;;11.28;80.30;95531.53;5041808;28;20210;-63
2023/05/13 03:22:27;;;;;;;6.18;5.63;;;;;;;11.25;80.37;95521.44;5040554;28;20234;-63
2023/05/13 03:24:53;;;;;;;5.40;5.00;;;;;;;11.25;80.41;95526.53;5041325;28;20324;-64
2023/05/13 03:27:20;;;;;;;5.43;4.93;;;;;;;11.24;80.03;95519.78;5040473;28;20249;-63
2023/05/13 03:29:47;;;;;;;6.88;5.88;;;;;;;11.25;78.33;95534.16;5042009;28;20646;-63
2023/05/13 03:32:13;;;;;;;6.55;5.30;;;;;;;11.21;78.48;95530.03;5040597;28;21618;-64
2023/05/13 03:34:40;;;;;;;5.35;4.95;;;;;;;11.27;78.11;95529.03;5040397;28;20333;-63
2023/05/13 03:37:07;;;;;;;5.25;4.72;;;;;;;11.17;75.17;95531.81;5040985;28;20297;-63
2023/05/13 03:39:35;;;;;;;4.40;4.00;;;;;;;11.15;73.71;95542.91;5041225;28;20695;-63
2023/05/13 03:42:02;;;;;;;5.32;4.93;;;;;;;11.21;73.47;95546.13;5039352;28;20470;-64
2023/05/13 03:44:29;;;;;;;5.03;4.68;;;;;;;11.19;74.00;95531.78;5041194;28;20225;-63
2023/05/13 03:46:56;;;;;;;4.90;4.60;;;;;;;11.36;72.72;95549.13;5041824;28;20206;-63
2023/05/13 03:49:22;;;;;;;3.00;2.80;;;;;;;11.16;67.37;95547.13;5040106;28;20364;-64
2023/05/13 03:51:49;;;;;;;3.83;2.55;;;;;;;11.12;68.36;95555.75;5039574;28;20659;-63
2023/05/13 03:54:15;;;;;;;4.60;3.30;;;;;;;11.24;68.82;95548.59;5041227;28;20794;-63
2023/05/13 03:56:43;;;;;;;3.03;2.83;;;;;;;11.38;70.05;95562.66;5040395;28;20301;-63
2023/05/13 03:59:10;;;;;;;3.30;3.00;;;;;;;11.41;67.43;95575.25;5040883;28;20260;-63
2023/05/13 04:01:37;;;;;;;3.35;2.78;;;;;;;11.47;65.44;95577.63;5039519;28;20300;-63
2023/05/13 04:04:04;;;;;;;4.38;2.78;;;;;;;11.60;65.92;95568.78;5038905;28;20275;-64
2023/05/13 04:06:31;;;;;;;5.30;3.05;;;;;;;11.78;67.04;95577.59;5038984;28;20332;-63
2023/05/13 04:08:57;;;;;;;3.97;3.10;;;;;;;11.90;67.21;95583.16;5039341;28;21012;-63
2023/05/13 04:11:24;;;;;;;3.58;3.28;;;;;;;12.06;66.99;95572.50;5039230;28;20294;-63
2023/05/13 04:13:52;;;;;;;3.65;3.08;;;;;;;12.24;66.69;95572.75;5038733;28;20894;-64
2023/05/13 04:16:20;;;;;;;4.88;2.80;;;;;;;12.35;66.50;95580.06;5038750;28;20289;-64
2023/05/13 04:18:46;;;;;;;3.47;2.70;;;;;;;12.41;64.76;95589.19;5039984;28;20207;-64
2023/05/13 04:21:13;;;;;;;2.85;2.65;;;;;;;12.47;64.67;95576.25;5040980;28;20297;-63
2023/05/13 04:23:40;;;;;;;3.78;3.17;;;;;;;12.56;64.59;95584.47;5039968;28;20306;-65
2023/05/13 04:26:07;;;;;;;3.70;2.70;;;;;;;12.58;61.24;95586.97;5040453;28;20670;-65
2023/05/13 04:28:35;;;;;;;2.58;2.30;;;;;;;12.35;60.52;95589.44;5040767;28;20693;-64
2023/05/13 04:31:03;;;;;;;6.70;3.72;;;;;;;12.30;61.31;95588.72;5041156;28;20212;-64
2023/05/13 04:33:29;;;;;;;7.07;3.22;;;;;;;12.42;62.31;95596.81;5040055;28;20333;-63
2023/05/13 04:35:56;;;;;;;3.88;3.10;;;;;;;12.79;65.15;95591.34;5039732;28;20238;-64
2023/05/13 04:38:23;;;;;;;3.95;3.28;;;;;;;13.36;65.03;95597.06;5039952;28;20293;-63
2023/05/13 04:40:49;;;;;;;4.07;2.97;;;;;;;14.50;62.53;95598.66;5040015;28;20321;-63
2023/05/13 04:43:16;;;;;;;2.88;2.55;;;;;;;15.60;58.63;95591.41;5040702;28;20964;-66
2023/05/13 04:45:43;;;;;;;3.17;2.70;;;;;;;16.92;52.62;95582.56;5039916;28;20230;-65
2023/05/13 04:48:11;;;;;;;3.75;2.53;;;;;;;18.22;49.03;95583.47;5040345;28;20259;-64
2023/05/13 04:50:37;;;;;;;3.55;3.35;;;;;;;19.50;45.33;95576.91;5039671;28;22274;-65
2023/05/13 04:53:04;;;;;;;3.20;3.00;;;;;;;20.35;41.95;95579.31;5039849;28;20215;-65
2023/05/13 04:55:31;;;;;;;3.15;2.60;;;;;;;20.60;38.70;95583.75;5039075;28;20289;-64
2023/05/13 04:57:57;;;;;;;3.55;3.25;;;;;;;20.64;38.68;95574.91;5040315;28;20725;-64
2023/05/13 05:00:24;;;;;;;3.92;3.20;;;;;;;20.58;39.28;95571.88;5040053;28;20508;-64
2023/05/13 05:02:51;;;;;;;3.13;2.83;;;;;;;20.27;40.09;95575.59;5042697;28;20338;-65
2023/05/13 05:05:19;;;;;;;3.00;2.72;;;;;;;19.44;40.67;95579.81;5043706;28;20336;-64
2023/05/13 05:07:46;;;;;;;3.58;2.92;;;;;;;18.52;42.79;95570.63;5043897;28;22567;-63
2023/05/13 05:10:14;;;;;;;3.83;3.17;;;;;;;17.54;45.49;95578.53;5043644;28;20242;-64
2023/05/13 05:12:41;;;;;;;4.55;4.22;;;;;;;16.70;47.59;95581.97;5043366;28;20206;-64
2023/05/13 05:15:14;;;;;;;6.40;3.63;;;;;;;16.25;49.40;95585.84;5042455;28;20285;-64
2023/05/13 05:17:41;;;;;;;4.63;3.90;;;;;;;15.80;49.51;95593.09;5042124;28;20279;-64
2023/05/13 05:20:08;;;;;;;4.68;3.60;;;;;;;15.43;50.92;95594.69;5044772;28;20334;-63
2023/05/13 05:22:37;;;;;;;5.93;3.67;;;;;;;15.46;52.09;95580.94;5042990;28;20213;-64
2023/05/13 05:25:04;;;;;;;5.10;3.60;;;;;;;15.73;52.02;95584.03;5042254;28;20384;-64
2023/05/13 05:27:30;;;;;;;7.72;3.60;;;;;;;16.28;51.62;95595.97;5043083;28;20293;-64
2023/05/13 05:29:57;;;;;;;4.90;3.00;;;;;;;17.03;50.42;95581.22;5042870;28;20229;-64
2023/05/13 05:32:24;;;;;;;4.65;3.40;;;;;;;18.09;47.72;95580.72;5043555;28;20289;-64
2023/05/13 05:34:51;;;;;;;3.75;3.50;;;;;;;18.89;44.55;95580.50;5042620;28;20237;-65
2023/05/13 05:37:17;;;;;;;4.13;3.72;;;;;;;18.95;43.97;95580.16;5042570;28;20297;-65
2023/05/13 05:39:45;;;;;;;4.82;3.75;;;;;;;18.46;44.53;95578.69;5043134;28;20321;-65
2023/05/13 05:42:12;;;;;;;5.70;3.95;;;;;;;17.80;45.28;95589.22;5042657;28;20297;-64
2023/05/13 05:44:39;;;;;;;6.50;3.85;;;;;;;17.44;46.52;95589.38;5041505;28;20298;-64
2023/05/13 05:47:06;;;;;;;3.90;3.60;;;;;;;17.10;47.83;95590.25;5042385;28;20768;-64
2023/05/13 05:49:32;;;;;;;5.07;4.18;;;;;;;16.92;48.79;95597.97;5043014;28;20331;-64
2023/05/13 05:51:59;;;;;;;5.07;3.78;;;;;;;16.78;48.89;95595.28;5042265;28;20316;-64
2023/05/13 05:54:25;;;;;;;4.72;3.97;;;;;;;16.76;48.72;95591.13;5042090;28;20284;-64
2023/05/13 05:56:53;;;;;;;4.40;3.55;;;;;;;16.78;48.69;95592.72;5043953;28;20321;-64
2023/05/13 05:59:20;;;;;;;4.00;3.17;;;;;;;16.62;48.61;95599.44;5042158;28;20302;-63
2023/05/13 06:01:47;;;;;;;5.55;4.00;;;;;;;16.51;49.44;95601.72;5041670;28;20294;-63
2023/05/13 06:04:13;;;;;;;4.05;3.45;;;;;;;16.31;50.29;95597.56;5040741;28;20297;-64
2023/05/13 06:06:40;;;;;;;4.55;3.97;;;;;;;16.15;51.23;95599.97;5039686;28;20274;-64
2023/05/13 06:09:07;;;;;;;12.18;8.55;;;;;;;15.95;51.23;95602.66;5041739;28;20327;-64
2023/05/13 06:11:34;;;;;;;6.90;6.30;;;;;;;15.87;52.05;95597.03;5041193;28;20234;-65
2023/05/13 06:14:02;;;;;;;5.15;3.50;;;;;;;15.89;51.31;95597.78;5039253;28;20202;-64
2023/05/13 06:16:28;;;;;;;4.32;3.28;;;;;;;16.01;50.20;95604.94;5041231;28;20776;-63
2023/05/13 06:18:55;;;;;;;4.03;3.63;;;;;;;16.02;49.08;95609.16;5040724;28;20399;-64
2023/05/13 06:21:22;;;;;;;3.75;3.40;;;;;;;15.95;49.13;95607.78;5042575;28;20297;-64
2023/05/13 06:23:48;;;;;;;4.30;3.90;;;;;;;15.92;50.18;95607.91;5042140;28;20383;-65
2023/05/13 06:26:15;;;;;;;3.58;3.25;;;;;;;15.84;47.59;95607.41;5041696;28;20376;-65
2023/05/13 06:28:42;;;;;;;3.83;3.55;;;;;;;15.77;48.59;95613.75;5041940;28;20283;-64
2023/05/13 06:31:10;;;;;;;4.07;3.65;;;;;;;15.77;49.46;95606.88;5043083;28;20293;-65
2023/05/13 06:33:37;;;;;;;5.82;4.00;;;;;;;15.89;49.59;95615.75;5041227;28;20751;-64
2023/05/13 06:36:04;;;;;;;4.45;3.70;;;;;;;16.01;48.51;95612.63;5042646;28;20206;-64
2023/05/13 06:38:30;;;;;;;8.57;4.57;;;;;;;16.23;47.97;95608.16;5043165;28;20289;-65
2023/05/13 06:40:57;;;;;;;6.07;4.63;;;;;;;16.55;47.86;95603.25;5041925;28;20281;-65
2023/05/13 06:43:24;;;;;;;6.10;4.78;;;;;;;17.03;46.87;95609.47;5041561;28;20740;-64
2023/05/13 06:45:51;;;;;;;6.03;3.67;;;;;;;17.21;45.43;95608.53;5040308;28;20226;-63
2023/05/13 06:48:19;;;;;;;6.32;4.53;;;;;;;17.15;45.86;95601.97;5040365;28;20952;-64
2023/05/13 06:50:48;;;;;;;6.40;3.60;;;;;;;17.07;46.13;95606.66;5042437;28;20218;-64
2023/05/13 06:53:15;;;;;;;5.00;3.65;;;;;;;16.88;46.07;95601.59;5041356;28;20210;-64
2023/05/13 06:55:41;;;;;;;3.20;3.00;;;;;;;16.66;44.15;95611.25;5041858;28;20343;-64
2023/05/13 06:58:08;;;;;;;4.57;3.45;;;;;;;16.65;44.96;95604.47;5041890;28;20231;-65
2023/05/13 07:00:37;;;;;;;4.80;3.25;;;;;;;16.95;44.42;95605.53;5041192;28;20293;-64
2023/05/13 07:03:04;;;;;;;3.85;3.55;;;;;;;17.35;42.55;95606.06;5042249;28;20209;-64
2023/05/13 07:05:33;;;;;;;7.40;4.15;;;;;;;17.90;41.36;95603.22;5041757;28;20313;-64
2023/05/13 07:08:00;;;;;;;3.03;2.42;;;;;;;18.29;38.49;95613.09;5040876;28;20202;-64
2023/05/13 07:10:27;;;;;;;4.25;2.90;;;;;;;18.31;39.25;95619.78;5041406;28;20657;-65
2023/05/13 07:12:53;;;;;;;2.88;2.60;;;;;;;18.61;37.89;95619.03;5041675;28;20293;-64
2023/05/13 07:15:20;;;;;;;9.20;2.60;;;;;;;18.54;37.97;95617.72;5041253;28;22474;-65
2023/05/13 07:17:47;;;;;;;4.50;2.53;;;;;;;18.42;37.32;95626.09;5041657;28;20205;-64
2023/05/13 07:20:14;;;;;;;3.63;2.45;;;;;;;18.69;38.16;95629.75;5041384;28;20293;-65
2023/05/13 07:22:42;;;;;;;3.92;3.35;;;;;;;18.87;37.86;95639.00;5041062;28;20206;-65
2023/05/13 07:25:09;;;;;;;2.92;2.45;;;;;;;19.00;37.60;95636.56;5039428;28;20714;-64
2023/05/13 07:27:36;;;;;;;5.00;2.65;;;;;;;19.08;37.83;95636.94;5041233;28;20636;-64
2023/05/13 07:30:03;;;;;;;3.83;2.35;;;;;;;19.34;38.51;95630.25;5041332;28;20206;-64
2023/05/13 07:32:30;;;;;;;4.28;2.78;;;;;;;20.29;37.39;95633.91;5041848;28;20202;-66
2023/05/13 07:34:57;;;;;;;4.63;3.13;;;;;;;21.16;33.68;95620.56;5041705;28;20229;-65
2023/05/13 07:37:23;;;;;;;4.63;2.42;;;;;;;22.49;30.91;95624.38;5039886;28;20680;-64
2023/05/13 07:39:52;;;;;;;4.18;2.78;;;;;;;23.03;31.13;95617.78;5042031;28;20347;-65
2023/05/13 07:42:19;;;;;;;4.13;3.45;;;;;;;23.12;30.16;95618.03;5040879;28;20293;-65
2023/05/13 07:44:45;;;;;;;3.08;2.88;;;;;;;22.50;32.49;95619.09;5041277;28;20229;-65
2023/05/13 07:47:12;;;;;;;3.80;3.60;;;;;;;21.54;34.29;95612.00;5040264;28;20766;-66
2023/05/13 07:49:39;;;;;;;4.45;4.07;;;;;;;20.21;36.52;95623.25;5041360;28;20233;-64
2023/05/13 07:52:06;;;;;;;4.15;3.50;;;;;;;19.90;37.31;95620.91;5040493;28;20234;-64
2023/05/13 07:54:33;;;;;;;5.38;4.35;;;;;;;20.45;37.77;95610.56;5040191;28;20205;-65
2023/05/13 07:57:01;;;;;;;8.23;3.83;;;;;;;21.18;36.20;95616.13;5040944;28;20242;-64
2023/05/13 07:59:28;;;;;;;4.80;3.70;;;;;;;22.05;35.93;95620.56;5041340;28;20790;-64
2023/05/13 08:01:55;;;;;;;3.67;3.42;;;;;;;22.34;34.21;95615.91;5041527;28;20287;-65
2023/05/13 08:04:21;;;;;;;4.03;3.70;;;;;;;22.58;34.52;95623.69;5039460;28;20598;-66
2023/05/13 08:06:48;;;;;;;3.60;3.22;;;;;;;24.08;32.31;95614.13;5038872;28;20321;-68
2023/05/13 08:09:15;;;;;;;3.95;3.50;;;;;;;27.30;27.97;95606.72;5039206;28;20665;-66
2023/05/13 08:11:41;;;;;;;4.20;3.90;;;;;;;31.85;22.82;95590.56;5038382;28;20685;-66
2023/05/13 08:14:09;;;;;;;7.35;6.65;;;;;;;35.90;19.15;95576.59;5038837;28;20882;-65
2023/05/13 08:16:36;;;;;;;3.67;3.00;;;;;;;38.64;16.55;95571.81;5039548;28;20294;-66
2023/05/13 08:19:03;;;;;;;3.35;3.15;;;;;;;38.54;15.95;95568.81;5039139;28;20202;-65
2023/05/13 08:21:30;;;;;;;4.82;3.25;;;;;;;37.60;16.31;95571.94;5040057;28;20209;-66
2023/05/13 08:23:57;;;;;;;6.10;3.60;;;;;;;38.63;15.94;95572.84;5039813;28;20242;-65
2023/05/13 08:26:24;;;;;;;3.78;3.47;;;;;;;38.34;15.97;95567.06;5040826;28;20290;-65
2023/05/13 08:28:50;;;;;;;6.25;3.58;;;;;;;37.04;16.67;95570.50;5041953;28;20755;-65
2023/05/13 08:31:18;;;;;;;6.78;4.07;;;;;;;36.25;17.50;95575.56;5041426;28;20289;-65
2023/05/13 08:33:47;;;;;;;3.95;3.72;;;;;;;37.87;16.83;95578.00;5039502;28;20777;-66
2023/05/13 08:36:14;;;;;;;4.50;3.40;;;;;;;38.72;16.38;95566.28;5042960;28;20636;-66
2023/05/13 08:38:42;;;;;;;4.20;3.90;;;;;;;37.88;16.06;95566.38;5043573;28;20380;-65
2023/05/13 08:41:12;;;;;;;3.60;3.40;;;;;;;35.11;18.50;95567.06;5042586;28;20237;-66
2023/05/13 08:43:39;;;;;;;4.05;3.70;;;;;;;33.24;20.43;95559.81;5041821;28;20211;-65
2023/05/13 08:46:09;;;;;;;4.57;4.05;;;;;;;32.54;20.69;95565.25;5040475;28;20321;-63
2023/05/13 08:48:38;;;;;;;4.30;3.85;;;;;;;33.61;20.28;95557.16;5040847;28;20210;-64
2023/05/13 08:51:05;;;;;;;3.63;3.40;;;;;;;35.23;18.83;95548.03;5042042;28;20305;-64
2023/05/13 08:53:34;;;;;;;4.22;3.85;;;;;;;37.69;17.55;95547.66;5040023;28;20545;-64
2023/05/13 08:56:01;;;;;;;4.53;4.13;;;;;;;39.28;16.15;95552.19;5040605;28;20289;-63
2023/05/13 08:58:28;;;;;;;4.65;4.35;;;;;;;40.60;14.42;95545.44;5041842;28;20289;-63
2023/05/13 09:00:55;;;;;;;4.53;4.13;;;;;;;39.28;15.50;95545.03;5041465;28;20279;-65
2023/05/13 09:03:22;;;;;;;5.03;4.60;;;;;;;38.53;16.07;95528.16;5040968;28;20288;-65
2023/05/13 09:05:50;;;;;;;4.88;4.47;;;;;;;39.02;15.96;95524.78;5040653;28;20229;-65
2023/05/13 09:08:17;;;;;;;4.57;4.18;;;;;;;39.99;15.90;95519.78;5039425;28;20297;-65
2023/05/13 09:10:44;;;;;;;5.43;4.97;;;;;;;38.08;17.16;95527.34;5039417;28;20305;-65
2023/05/13 09:13:12;;;;;;;6.03;5.53;;;;;;;36.49;19.17;95523.09;5042321;28;20271;-66
2023/05/13 09:15:41;;;;;;;5.68;5.30;;;;;;;35.95;19.24;95526.56;5040147;28;20281;-66
2023/05/13 09:18:08;;;;;;;5.55;5.07;;;;;;;35.92;19.85;95521.66;5040725;28;20203;-65
2023/05/13 09:20:35;;;;;;;6.75;5.15;;;;;;;35.25;20.12;95524.88;5039476;28;20252;-66
2023/05/13 09:23:06;;;;;;;4.97;4.57;;;;;;;33.90;21.06;95526.56;5036556;28;20272;-65
2023/05/13 09:25:33;;;;;;;5.13;4.72;;;;;;;32.87;22.40;95531.66;5039225;28;20372;-64
2023/05/13 09:28:01;;;;;;;4.93;4.47;;;;;;;31.53;23.74;95534.44;5043013;28;20676;-71
2023/05/13 09:30:30;;;;;;;7.13;5.55;;;;;;;30.75;25.10;95527.13;5035002;28;20238;-70
2023/05/13 09:33:08;;;;;;;5.80;5.30;;;;;;;30.17;26.77;95527.19;5042251;28;20207;-69
2023/05/13 09:35:36;;;;;;;10.55;6.60;;;;;;;29.79;27.45;95528.50;5044817;28;20664;-70
2023/05/13 09:38:14;;;;;;;6.57;6.05;;;;;;;29.13;28.04;95520.44;5046349;28;20301;-68
2023/05/13 09:40:41;;;;;;;10.98;5.50;;;;;;;28.27;28.84;95513.16;5043185;28;20214;-70
2023/05/13 09:43:08;;;;;;;7.95;5.88;;;;;;;27.53;30.47;95509.81;5044001;28;20280;-69
2023/05/13 09:45:35;;;;;;;6.50;6.00;;;;;;;26.87;32.10;95507.22;5044953;28;20340;-69
2023/05/13 09:48:03;;;;;;;5.97;5.40;;;;;;;26.41;33.63;95514.81;5040836;28;20222;-71
2023/05/13 09:50:31;;;;;;;5.60;5.15;;;;;;;25.67;33.76;95514.38;5050024;28;20326;-69
2023/05/13 09:52:58;;;;;;;6.28;5.78;;;;;;;24.58;34.96;95513.19;5049793;28;20721;-69
2023/05/13 09:55:28;;;;;;;6.30;5.78;;;;;;;23.89;36.67;95510.91;5034974;28;20703;-68
2023/05/13 09:57:55;;;;;;;5.57;5.07;;;;;;;23.76;37.96;95509.41;5043898;28;20340;-70
2023/05/13 10:00:22;;;;;;;6.00;5.50;;;;;;;23.64;38.08;95503.41;5044973;28;20293;-70
2023/05/13 10:02:49;;;;;;;6.68;6.07;;;;;;;22.91;39.36;95511.59;5046342;28;20241;-72
2023/05/13 10:05:16;;;;;;;6.93;6.10;;;;;;;22.31;40.93;95517.72;5044789;28;20227;-69
2023/05/13 10:07:43;;;;;;;6.78;6.07;;;;;;;21.85;40.90;95509.81;5044776;28;20569;-73
2023/05/13 10:10:10;;;;;;;9.07;6.35;;;;;;;21.78;41.14;95508.63;5043876;28;20234;-70
2023/05/13 10:12:40;;;;;;;8.23;5.90;;;;;;;21.79;41.46;95512.84;5044483;28;20305;-71
2023/05/13 10:15:08;;;;;;;9.70;7.22;;;;;;;21.85;41.26;95509.81;5043268;28;20210;-71
2023/05/13 10:17:36;;;;;;;7.63;6.00;;;;;;;21.92;40.83;95517.06;5042914;28;20198;-70
2023/05/13 10:20:05;;;;;;;6.07;5.47;;;;;;;21.72;42.50;95518.47;5044610;28;20304;-71
2023/05/13 10:22:33;;;;;;;6.85;5.40;;;;;;;21.82;42.08;95516.03;5048204;28;20281;-60
2023/05/13 10:25:01;;;;;;;6.57;6.07;;;;;;;22.17;41.74;95516.16;5045312;28;20230;-65
2023/05/13 10:27:29;;;;;;;6.82;6.13;;;;;;;22.15;41.38;95510.25;5046109;28;20735;-66
2023/05/13 10:29:59;;;;;;;7.47;6.72;;;;;;;22.00;40.78;95508.75;5044392;28;20769;-63
2023/05/13 10:32:28;;;;;;;5.80;5.40;;;;;;;22.15;41.46;95502.50;5044727;28;20206;-66
2023/05/13 10:35:05;;;;;;;8.93;7.10;;;;;;;22.36;42.71;95505.28;5045943;28;20321;-63
2023/05/13 10:37:59;;;;;;;7.70;7.05;;;;;;;22.38;41.83;95501.66;5047670;28;21492;-66
2023/05/13 10:40:55;;;;;;;12.68;6.95;;;;;;;22.43;42.50;95495.31;5043524;28;20289;-64
2023/05/13 10:43:24;;;;;;;8.75;6.85;;;;;;;22.37;41.31;95501.75;5045444;28;20289;-64
2023/05/13 10:45:57;;;;;;;6.82;6.32;;;;;;;22.36;42.23;95497.53;5047795;28;20202;-68
2023/05/13 10:48:24;;;;;;;6.72;6.13;;;;;;;22.38;41.50;95503.41;5045896;28;20362;-64
2023/05/13 10:50:54;;;;;;;6.60;6.10;;;;;;;22.39;41.48;95507.66;5046573;28;20333;-62
2023/05/13 10:53:23;;;;;;;6.85;5.47;;;;;;;22.50;41.50;95499.09;5045674;28;20346;-65
2023/05/13 10:55:54;;;;;;;8.27;6.30;;;;;;;22.57;41.38;95495.09;5045592;28;20194;-65
2023/05/13 10:58:23;;;;;;;11.43;6.30;;;;;;;22.58;42.01;95497.59;5046503;28;20202;-63
2023/05/13 11:00:50;;;;;;;6.93;6.43;;;;;;;22.46;42.25;95505.44;5045767;28;20226;-65
2023/05/13 11:03:29;;;;;;;8.48;7.03;;;;;;;22.50;41.21;95502.53;5045305;28;20320;-65
2023/05/13 11:06:03;;;;;;;7.00;5.82;;;;;;;22.48;40.58;95504.41;5045124;28;20206;-63
2023/05/13 11:08:36;;;;;;;8.63;6.88;;;;;;;22.39;41.60;95503.31;5044923;28;20749;-66
2023/05/13 11:11:03;;;;;;;6.38;5.93;;;;;;;22.52;41.88;95500.63;5046303;28;20230;-68
2023/05/13 11:13:37;;;;;;;6.50;6.10;;;;;;;22.00;42.34;95490.63;5045679;28;20234;-66
2023/05/13 11:16:06;;;;;;;7.40;6.13;;;;;;;22.06;43.10;95493.63;5045474;28;20306;-64
2023/05/13 11:18:35;;;;;;;6.18;5.78;;;;;;;22.09;42.11;95497.75;5046388;28;20807;-66
2023/05/13 11:21:03;;;;;;;8.43;5.63;;;;;;;21.83;42.07;95493.56;5046211;28;20211;-63
2023/05/13 11:23:31;;;;;;;6.95;6.25;;;;;;;21.47;42.88;95484.91;5045389;28;20711;-62
2023/05/13 11:26:12;;;;;;;6.70;5.43;;;;;;;21.26;43.93;95487.22;5044853;28;20234;-67
2023/05/13 11:28:54;;;;;;;6.07;5.68;;;;;;;21.38;43.58;95470.84;5045957;28;20672;-67
2023/05/13 11:31:21;;;;;;;6.72;5.57;;;;;;;21.43;42.47;95473.13;5046028;28;20285;-62
2023/05/13 11:34:12;;;;;;;7.05;6.45;;;;;;;21.43;41.60;95469.72;5045481;28;20206;-64
2023/05/13 11:36:40;;;;;;;7.78;5.82;;;;;;;21.44;42.00;95459.25;5046072;28;20234;-65